createdAt,value
2023-01-27T00:01:05.423Z,101543.69
2023-01-27T00:03:32.916Z,101540.94
2023-01-27T00:06:01.327Z,101543.91
2023-01-27T00:08:29.592Z,101551.41
2023-01-27T00:11:20.099Z,101558.22
2023-01-27T00:13:47.338Z,101557.41
2023-01-27T00:16:14.387Z,101549.59
2023-01-27T00:18:41.553Z,101545.13
2023-01-27T00:21:27.279Z,101540.09
2023-01-27T00:24:13.135Z,101548.81
2023-01-27T00:26:40.252Z,101545.19
2023-01-27T00:29:07.239Z,101553.19
2023-01-27T00:31:53.185Z,101547.81
2023-01-27T00:34:20.224Z,101548.69
2023-01-27T00:36:47.201Z,101551.44
2023-01-27T00:39:14.541Z,101551.28
2023-01-27T00:41:41.740Z,101557.34
2023-01-27T00:44:13.384Z,101552.28
2023-01-27T00:46:42.400Z,101554.78
2023-01-27T00:49:10.930Z,101554.88
2023-01-27T00:51:38.322Z,101562.16
2023-01-27T00:54:05.717Z,101560.63
2023-01-27T00:56:33.285Z,101561.41
2023-01-27T00:59:00.665Z,101570.09
2023-01-27T01:01:28.899Z,101568.34
2023-01-27T01:03:58.304Z,101571.94
2023-01-27T01:06:26.446Z,101562.53
2023-01-27T01:08:53.824Z,101557.34
2023-01-27T01:11:22.117Z,101564.47
2023-01-27T01:13:49.537Z,101567.72
2023-01-27T01:16:23.822Z,101569.25
2023-01-27T01:18:50.949Z,101569.59
2023-01-27T01:21:18.104Z,101580.41
2023-01-27T01:23:46.583Z,101572.78
2023-01-27T01:26:17.053Z,101569.47
2023-01-27T01:28:45.809Z,101572.78
2023-01-27T01:31:19.765Z,101578.63
2023-01-27T01:33:48.748Z,101581.13
2023-01-27T01:36:20.578Z,101581.38
2023-01-27T01:38:48.833Z,101580.41
2023-01-27T01:41:20.318Z,101582.03
2023-01-27T01:43:49.417Z,101580.13
2023-01-27T01:46:18.116Z,101584.59
2023-01-27T01:49:03.362Z,101585.53
2023-01-27T01:51:41.987Z,101591.56
2023-01-27T01:54:53.923Z,101595.72
2023-01-27T01:57:28.803Z,101589.00
2023-01-27T02:00:08.309Z,101592.53
2023-01-27T02:02:37.012Z,101591.44
2023-01-27T02:05:21.998Z,101587.16
2023-01-27T02:08:20.109Z,101578.88
2023-01-27T02:10:47.948Z,101580.28
2023-01-27T02:13:15.004Z,101571.66
2023-01-27T02:15:42.253Z,101576.78
2023-01-27T02:18:09.405Z,101574.34
2023-01-27T02:20:51.949Z,101572.66
2023-01-27T02:23:53.473Z,101579.19
2023-01-27T02:26:34.752Z,101581.66
2023-01-27T02:29:15.062Z,101574.22
2023-01-27T02:31:42.830Z,101571.50
2023-01-27T02:34:17.139Z,101567.19
2023-01-27T02:36:54.570Z,101571.28
2023-01-27T02:39:32.700Z,101572.25
2023-01-27T02:42:01.030Z,101580.72
2023-01-27T02:44:28.001Z,101585.63
2023-01-27T02:46:55.300Z,101591.59
2023-01-27T02:49:22.258Z,101591.63
2023-01-27T02:51:49.302Z,101595.88
2023-01-27T02:54:16.325Z,101595.00
2023-01-27T02:56:45.643Z,101595.84
2023-01-27T02:59:12.729Z,101596.03
2023-01-27T03:01:39.916Z,101594.13
2023-01-27T03:04:08.711Z,101600.19
2023-01-27T03:06:35.761Z,101602.75
2023-01-27T03:09:02.822Z,101595.47
2023-01-27T03:11:48.624Z,101596.63
2023-01-27T03:14:16.362Z,101595.44
2023-01-27T03:17:02.222Z,101595.44
2023-01-27T03:19:29.266Z,101593.50
2023-01-27T03:21:56.655Z,101589.34
2023-01-27T03:24:23.983Z,101595.47
2023-01-27T03:26:53.299Z,101590.28
2023-01-27T03:29:38.902Z,101599.88
2023-01-27T03:32:05.896Z,101604.81
2023-01-27T03:34:32.927Z,101598.78
2023-01-27T03:37:18.795Z,101597.38
2023-01-27T03:40:04.680Z,101603.22
2023-01-27T03:42:50.297Z,101604.22
2023-01-27T03:45:36.226Z,101605.97
2023-01-27T03:48:03.376Z,101609.56
2023-01-27T03:50:43.140Z,101606.06
2023-01-27T03:53:11.173Z,101607.00
2023-01-27T03:55:39.138Z,101599.31
2023-01-27T03:58:28.940Z,101602.78
2023-01-27T04:01:00.476Z,101610.31
2023-01-27T04:03:52.511Z,101600.91
2023-01-27T04:06:48.633Z,101601.88
2023-01-27T04:09:31.731Z,101594.84
2023-01-27T04:12:02.982Z,101597.94
2023-01-27T04:14:32.780Z,101592.09
2023-01-27T04:17:07.295Z,101593.97
2023-01-27T04:19:34.817Z,101597.19
2023-01-27T04:22:02.765Z,101589.34
2023-01-27T04:24:33.532Z,101596.31
2023-01-27T04:27:09.986Z,101598.78
2023-01-27T04:29:43.398Z,101591.88
2023-01-27T04:32:13.330Z,101596.66
2023-01-27T04:34:42.258Z,101601.97
2023-01-27T04:37:10.629Z,101600.94
2023-01-27T04:39:37.967Z,101606.28
2023-01-27T04:42:05.220Z,101600.38
2023-01-27T04:44:32.819Z,101603.66
2023-01-27T04:47:00.068Z,101607.25
2023-01-27T04:49:27.393Z,101612.00
2023-01-27T04:51:57.683Z,101607.91
2023-01-27T04:54:24.735Z,101611.34
2023-01-27T04:57:00.340Z,101617.09
2023-01-27T04:59:27.764Z,101630.84
2023-01-27T05:01:54.858Z,101624.06
2023-01-27T05:04:22.360Z,101623.78
2023-01-27T05:06:49.533Z,101626.75
2023-01-27T05:09:16.562Z,101625.06
2023-01-27T05:11:43.653Z,101632.59
2023-01-27T05:14:10.676Z,101625.59
2023-01-27T05:16:39.584Z,101632.59
2023-01-27T05:19:07.395Z,101643.59
2023-01-27T05:21:34.681Z,101638.47
2023-01-27T05:24:02.822Z,101643.63
2023-01-27T05:26:29.968Z,101646.19
2023-01-27T05:29:00.988Z,101641.06
2023-01-27T05:31:38.734Z,101651.44
2023-01-27T05:34:06.018Z,101653.19
2023-01-27T05:36:33.017Z,101659.31
2023-01-27T05:39:00.508Z,101652.19
2023-01-27T05:41:34.798Z,101654.72
2023-01-27T05:44:01.956Z,101653.00
2023-01-27T05:46:32.237Z,101659.03
2023-01-27T05:49:06.890Z,101656.72
2023-01-27T05:51:39.919Z,101664.94
2023-01-27T05:54:08.336Z,101673.59
2023-01-27T05:56:35.449Z,101666.69
2023-01-27T05:59:02.559Z,101666.91
2023-01-27T06:01:33.935Z,101668.25
2023-01-27T06:04:01.580Z,101663.25
2023-01-27T06:06:32.054Z,101666.06
2023-01-27T06:09:00.796Z,101651.91
2023-01-27T06:11:28.131Z,101654.38
2023-01-27T06:13:55.781Z,101661.28
2023-01-27T06:16:23.980Z,101660.25
2023-01-27T06:18:51.586Z,101659.63
2023-01-27T06:21:20.589Z,101660.59
2023-01-27T06:23:48.193Z,101665.47
2023-01-27T06:26:19.417Z,101662.13
2023-01-27T06:28:46.775Z,101659.84
2023-01-27T06:31:22.055Z,101663.25
2023-01-27T06:33:51.397Z,101666.56
2023-01-27T06:36:21.947Z,101675.91
2023-01-27T06:38:51.496Z,101674.22
2023-01-27T06:41:18.696Z,101682.97
2023-01-27T06:43:46.215Z,101681.00
2023-01-27T06:46:13.367Z,101683.88
2023-01-27T06:48:40.591Z,101689.00
2023-01-27T06:51:07.834Z,101676.16
2023-01-27T06:53:37.258Z,101679.69
2023-01-27T06:56:05.587Z,101680.47
2023-01-27T06:58:33.655Z,101675.34
2023-01-27T07:01:00.968Z,101687.41
2023-01-27T07:03:30.333Z,101690.91
2023-01-27T07:05:57.472Z,101700.19
2023-01-27T07:08:27.139Z,101696.88
2023-01-27T07:10:54.227Z,101700.22
2023-01-27T07:13:21.308Z,101695.19
2023-01-27T07:15:53.471Z,101702.88
2023-01-27T07:18:20.529Z,101704.59
2023-01-27T07:20:48.348Z,101708.81
2023-01-27T07:23:15.291Z,101707.06
2023-01-27T07:25:44.279Z,101716.50
2023-01-27T07:28:11.344Z,101713.97
2023-01-27T07:30:39.257Z,101717.16
2023-01-27T07:33:12.182Z,101722.91
2023-01-27T07:35:41.882Z,101716.31
2023-01-27T07:38:10.133Z,101720.50
2023-01-27T07:40:37.165Z,101726.19
2023-01-27T07:43:04.469Z,101718.66
2023-01-27T07:45:31.802Z,101722.03
2023-01-27T07:48:07.168Z,101731.22
2023-01-27T07:50:36.375Z,101731.25
2023-01-27T07:53:05.479Z,101725.34
2023-01-27T07:55:34.067Z,101726.19
2023-01-27T07:58:01.592Z,101723.47
2023-01-27T08:00:29.079Z,101727.75
2023-01-27T08:02:58.807Z,101736.34
2023-01-27T08:05:27.362Z,101731.16
2023-01-27T08:07:58.675Z,101732.78
2023-01-27T08:10:26.281Z,101735.28
2023-01-27T08:12:53.773Z,101729.38
2023-01-27T08:15:21.993Z,101731.00
2023-01-27T08:17:59.447Z,101735.22
2023-01-27T08:20:28.187Z,101731.50
2023-01-27T08:22:55.921Z,101734.03
2023-01-27T08:25:23.737Z,101739.09
2023-01-27T08:27:56.580Z,101743.13
2023-01-27T08:30:25.358Z,101739.69
2023-01-27T08:32:52.435Z,101747.50
2023-01-27T08:35:19.782Z,101744.72
2023-01-27T08:37:48.834Z,101743.81
2023-01-27T08:40:17.507Z,101754.66
2023-01-27T08:42:44.554Z,101751.84
2023-01-27T08:45:12.380Z,101747.53
2023-01-27T08:47:39.379Z,101751.31
2023-01-27T08:50:08.116Z,101754.75
2023-01-27T08:52:35.266Z,101756.28
2023-01-27T08:55:02.285Z,101756.09
2023-01-27T08:57:32.275Z,101765.22
2023-01-27T08:59:59.960Z,101756.09
2023-01-27T09:02:27.203Z,101767.13
2023-01-27T09:04:54.225Z,101762.84
2023-01-27T09:07:21.533Z,101763.59
2023-01-27T09:09:51.299Z,101768.88
2023-01-27T09:12:22.987Z,101772.09
2023-01-27T09:14:50.193Z,101782.47
2023-01-27T09:17:19.686Z,101791.16
2023-01-27T09:19:47.455Z,101779.00
2023-01-27T09:22:14.574Z,101784.31
2023-01-27T09:24:41.612Z,101786.78
2023-01-27T09:27:08.737Z,101792.78
2023-01-27T09:29:36.666Z,101790.84
2023-01-27T09:32:06.458Z,101782.31
2023-01-27T09:34:35.941Z,101790.84
2023-01-27T09:37:14.797Z,101794.34
2023-01-27T09:40:04.097Z,101790.81
2023-01-27T09:43:08.039Z,101797.59
2023-01-27T09:46:33.581Z,101805.41
2023-01-27T09:50:00.835Z,101809.75
2023-01-27T09:53:35.574Z,101811.31
2023-01-27T09:56:39.486Z,101805.97
2023-01-27T09:59:57.997Z,101807.00
2023-01-27T10:03:25.768Z,101807.00
2023-01-27T10:06:02.411Z,101813.72
2023-01-27T10:09:06.805Z,101809.44
2023-01-27T10:12:08.823Z,101812.97
2023-01-27T10:15:32.816Z,101818.00
2023-01-27T10:18:13.617Z,101812.78
2023-01-27T10:21:14.527Z,101819.56
2023-01-27T10:24:35.657Z,101826.25
2023-01-27T10:27:23.069Z,101821.09
2023-01-27T10:30:18.106Z,101815.84
2023-01-27T10:32:58.892Z,101820.00
2023-01-27T10:35:58.389Z,101823.47
2023-01-27T10:38:43.673Z,101818.31
2023-01-27T10:41:41.323Z,101809.84
2023-01-27T10:44:53.350Z,101821.69
2023-01-27T10:47:47.219Z,101820.06
2023-01-27T10:50:22.751Z,101817.16
2023-01-27T10:53:10.048Z,101820.78
2023-01-27T10:56:04.885Z,101827.25
2023-01-27T10:58:47.374Z,101825.88
2023-01-27T11:01:26.075Z,101823.09
2023-01-27T11:04:06.276Z,101839.38
2023-01-27T11:06:40.465Z,101829.16
2023-01-27T11:09:42.686Z,101828.50
2023-01-27T11:12:15.210Z,101835.97
2023-01-27T11:14:48.155Z,101831.69
2023-01-27T11:17:42.590Z,101832.94
2023-01-27T11:20:41.795Z,101830.50
2023-01-27T11:23:45.899Z,101834.44
2023-01-27T11:26:43.493Z,101828.38
2023-01-27T11:29:42.765Z,101827.94
2023-01-27T11:33:11.479Z,101826.97
2023-01-27T11:35:38.554Z,101820.31
2023-01-27T11:38:21.776Z,101816.47
2023-01-27T11:40:53.036Z,101824.16
2023-01-27T11:43:26.409Z,101820.09
2023-01-27T11:46:02.923Z,101816.97
2023-01-27T11:48:48.791Z,101823.78
2023-01-27T11:51:29.020Z,101820.00
2023-01-27T11:54:26.075Z,101818.22
2023-01-27T11:56:53.383Z,101810.63
2023-01-27T11:59:30.031Z,101814.81
2023-01-27T12:02:19.280Z,101824.50
2023-01-27T12:05:06.506Z,101822.91
2023-01-27T12:07:58.934Z,101829.56
2023-01-27T12:10:37.970Z,101824.22
2023-01-27T12:13:27.465Z,101832.34
2023-01-27T12:16:04.442Z,101823.78
2023-01-27T12:18:47.167Z,101827.81
2023-01-27T12:21:15.538Z,101824.34
2023-01-27T12:24:22.345Z,101823.72
2023-01-27T12:26:53.039Z,101828.13
2023-01-27T12:29:28.759Z,101830.94
2023-01-27T12:32:00.569Z,101822.19
2023-01-27T12:34:36.182Z,101824.75
2023-01-27T12:37:07.838Z,101824.63
2023-01-27T12:39:50.280Z,101826.47
2023-01-27T12:42:47.672Z,101818.84
2023-01-27T12:45:31.381Z,101829.03
2023-01-27T12:48:14.565Z,101829.03
2023-01-27T12:50:50.395Z,101827.56
2023-01-27T12:53:25.503Z,101823.44
2023-01-27T12:56:20.440Z,101830.84
2023-01-27T12:58:58.631Z,101837.03
2023-01-27T13:01:37.900Z,101834.44
2023-01-27T13:04:20.511Z,101835.34
2023-01-27T13:07:02.138Z,101829.41
2023-01-27T13:09:53.760Z,101835.34
2023-01-27T13:12:28.368Z,101827.56
2023-01-27T13:15:31.296Z,101836.22
2023-01-27T13:18:19.305Z,101832.06
2023-01-27T13:21:03.654Z,101835.44
2023-01-27T13:23:37.334Z,101837.06
2023-01-27T13:26:19.948Z,101833.38
2023-01-27T13:29:21.178Z,101829.41
2023-01-27T13:32:25.014Z,101825.00
2023-01-27T13:35:30.825Z,101833.66
2023-01-27T13:38:30.366Z,101827.66
2023-01-27T13:40:57.936Z,101830.19
2023-01-27T13:43:37.631Z,101830.31
2023-01-27T13:46:27.150Z,101824.84
2023-01-27T13:49:28.712Z,101829.34
2023-01-27T13:51:55.825Z,101829.03
2023-01-27T13:54:25.423Z,101831.69
2023-01-27T13:57:23.619Z,101833.19
2023-01-27T14:04:22.924Z,101843.56
2023-01-27T14:07:32.343Z,101840.25
2023-01-27T14:10:22.136Z,101842.88
2023-01-27T14:13:48.774Z,101844.66
2023-01-27T14:17:13.398Z,101846.91
2023-01-27T14:20:01.464Z,101852.19
2023-01-27T14:22:56.620Z,101859.69
2023-01-27T14:25:44.502Z,101857.25
2023-01-27T14:28:40.324Z,101860.59
2023-01-27T14:31:21.028Z,101863.97
2023-01-27T14:34:34.281Z,101858.06
2023-01-27T14:37:55.009Z,101855.44
2023-01-27T14:40:47.206Z,101857.94
2023-01-27T14:43:42.246Z,101861.63
2023-01-27T14:47:18.436Z,101864.06
2023-01-27T14:50:28.756Z,101868.22
2023-01-27T14:53:18.534Z,101870.38
2023-01-27T14:56:26.774Z,101878.03
2023-01-27T14:59:23.427Z,101878.91
2023-01-27T15:02:40.985Z,101883.03
2023-01-27T15:05:36.695Z,101882.53
2023-01-27T15:08:13.451Z,101872.16
2023-01-27T15:11:03.535Z,101882.22
2023-01-27T15:14:06.010Z,101887.56
2023-01-27T15:17:03.576Z,101890.91
2023-01-27T15:20:03.278Z,101895.31
2023-01-27T15:23:01.420Z,101892.63
2023-01-27T15:25:39.830Z,101899.34
2023-01-27T15:28:16.611Z,101895.41
2023-01-27T15:31:08.600Z,101889.50
2023-01-27T15:34:04.874Z,101898.72
2023-01-27T15:36:58.056Z,101902.22
2023-01-27T15:39:35.661Z,101901.66
2023-01-27T15:42:10.579Z,101918.56
2023-01-27T15:45:04.141Z,101920.41
2023-01-27T15:47:36.963Z,101916.81
2023-01-27T15:50:29.485Z,101921.97
2023-01-27T15:53:22.552Z,101918.66
2023-01-27T15:55:56.640Z,101931.47
2023-01-27T15:58:52.057Z,101931.28
2023-01-27T16:01:34.792Z,101932.56
2023-01-27T16:04:26.753Z,101934.97
2023-01-27T16:07:03.090Z,101938.50
2023-01-27T16:09:46.765Z,101939.28
2023-01-27T16:12:20.127Z,101937.69
2023-01-27T16:14:47.338Z,101941.16
2023-01-27T16:17:25.167Z,101941.31
2023-01-27T16:20:20.893Z,101940.94
2023-01-27T16:23:02.062Z,101942.19
2023-01-27T16:25:40.084Z,101939.56
2023-01-27T16:28:38.373Z,101948.16
2023-01-27T16:31:17.389Z,101944.94
2023-01-27T16:33:55.479Z,101946.69
2023-01-27T16:36:36.363Z,101954.22
2023-01-27T16:39:30.667Z,101948.53
2023-01-27T16:42:00.251Z,101946.69
2023-01-27T16:44:49.835Z,101947.63
2023-01-27T16:47:44.143Z,101963.06
2023-01-27T16:50:36.739Z,101966.47
2023-01-27T16:53:14.437Z,101967.22
2023-01-27T16:55:41.801Z,101974.50
2023-01-27T16:58:21.922Z,101976.31
2023-01-27T17:00:52.161Z,101965.81
2023-01-27T17:03:37.901Z,101966.00
2023-01-27T17:06:16.129Z,101963.22
2023-01-27T17:08:49.696Z,101968.72
2023-01-27T17:11:28.829Z,101965.94
2023-01-27T17:14:28.391Z,101965.16
2023-01-27T17:17:15.106Z,101967.75
2023-01-27T17:19:49.045Z,101973.72
2023-01-27T17:22:34.130Z,101966.25
2023-01-27T17:25:15.278Z,101974.78
2023-01-27T17:27:44.940Z,101976.72
2023-01-27T17:30:25.144Z,101979.69
2023-01-27T17:32:58.386Z,101981.41
2023-01-27T17:35:39.815Z,101984.69
2023-01-27T17:38:24.690Z,101983.06
2023-01-27T17:40:55.089Z,101990.38
2023-01-27T17:43:33.892Z,101992.44
2023-01-27T17:46:16.640Z,101992.59
2023-01-27T17:48:59.136Z,102000.56
2023-01-27T17:51:51.373Z,101990.38
2023-01-27T17:54:41.444Z,101991.75
2023-01-27T17:57:32.577Z,102003.44
2023-01-27T18:00:11.300Z,102006.03
2023-01-27T18:02:56.435Z,102008.81
2023-01-27T18:05:31.880Z,102014.91
2023-01-27T18:07:59.748Z,102013.16
2023-01-27T18:10:44.111Z,102017.50
2023-01-27T18:13:20.408Z,102020.00
2023-01-27T18:16:15.744Z,102019.13
2023-01-27T18:18:43.753Z,102030.28
2023-01-27T18:21:19.168Z,102027.06
2023-01-27T18:23:58.951Z,102022.81
2023-01-27T18:26:38.305Z,102038.28
2023-01-27T18:29:38.374Z,102034.88
2023-01-27T18:32:20.467Z,102037.41
2023-01-27T18:34:56.367Z,102044.31
2023-01-27T18:37:36.198Z,102048.44
2023-01-27T18:40:34.721Z,102047.53
2023-01-27T18:43:05.365Z,102045.75
2023-01-27T18:45:32.623Z,102044.13
2023-01-27T18:47:59.882Z,102051.84
2023-01-27T18:50:28.378Z,102052.06
2023-01-27T18:52:55.934Z,102052.06
2023-01-27T18:55:30.028Z,102058.28
2023-01-27T18:58:00.478Z,102052.22
2023-01-27T19:00:41.221Z,102053.94
2023-01-27T19:03:19.317Z,102059.97
2023-01-27T19:05:48.879Z,102059.19
2023-01-27T19:08:21.293Z,102056.81
2023-01-27T19:10:49.836Z,102059.13
2023-01-27T19:13:18.191Z,102055.63
2023-01-27T19:15:59.836Z,102059.13
2023-01-27T19:18:32.686Z,102060.84
2023-01-27T19:21:01.064Z,102057.38
2023-01-27T19:23:28.365Z,102065.03
2023-01-27T19:25:59.883Z,102068.59
2023-01-27T19:28:38.543Z,102068.69
2023-01-27T19:31:07.446Z,102063.56
2023-01-27T19:33:37.120Z,102065.28
2023-01-27T19:36:36.945Z,102069.88
2023-01-27T19:39:22.731Z,102081.09
2023-01-27T19:41:49.722Z,102072.38
2023-01-27T19:44:16.898Z,102078.47
2023-01-27T19:46:44.266Z,102070.97
2023-01-27T19:49:19.684Z,102077.75
2023-01-27T19:51:46.765Z,102079.50
2023-01-27T19:54:13.826Z,102082.09
2023-01-27T19:56:40.884Z,102082.09
2023-01-27T19:59:09.520Z,102086.38
2023-01-27T20:01:36.583Z,102082.97
2023-01-27T20:04:03.607Z,102083.88
2023-01-27T20:06:31.815Z,102088.19
2023-01-27T20:09:03.234Z,102091.56
2023-01-27T20:11:38.468Z,102093.34
2023-01-27T20:14:14.160Z,102092.50
2023-01-27T20:16:42.588Z,102093.34
2023-01-27T20:19:11.916Z,102092.50
2023-01-27T20:21:38.982Z,102093.41
2023-01-27T20:24:07.263Z,102098.50
2023-01-27T20:26:34.818Z,102095.19
2023-01-27T20:29:04.145Z,102096.97
2023-01-27T20:31:31.261Z,102097.00
2023-01-27T20:34:00.148Z,102109.03
2023-01-27T20:36:27.171Z,102104.81
2023-01-27T20:38:54.208Z,102105.66
2023-01-27T20:41:24.225Z,102107.34
2023-01-27T20:44:03.028Z,102110.91
2023-01-27T20:46:30.840Z,102113.50
2023-01-27T20:49:00.462Z,102112.63
2023-01-27T20:51:27.634Z,102112.72
2023-01-27T20:53:54.889Z,102114.47
2023-01-27T20:56:24.104Z,102120.34
2023-01-27T20:58:52.147Z,102113.63
2023-01-27T21:01:23.190Z,102116.16
2023-01-27T21:03:50.876Z,102110.22
2023-01-27T21:06:19.942Z,102108.47
2023-01-27T21:08:49.124Z,102107.66
2023-01-27T21:11:18.922Z,102106.03
2023-01-27T21:13:46.895Z,102114.59
2023-01-27T21:16:14.380Z,102110.38
2023-01-27T21:18:42.157Z,102103.47
2023-01-27T21:21:26.818Z,102104.31
2023-01-27T21:23:55.596Z,102106.88
2023-01-27T21:26:23.965Z,102113.00
2023-01-27T21:28:51.100Z,102118.97
2023-01-27T21:31:21.543Z,102119.94
2023-01-27T21:33:50.137Z,102108.78
2023-01-27T21:36:18.583Z,102112.16
2023-01-27T21:38:45.894Z,102112.16
2023-01-27T21:41:42.383Z,102118.97
2023-01-27T21:44:43.667Z,102111.25
2023-01-27T21:47:17.774Z,102114.59
2023-01-27T21:50:03.014Z,102118.13
2023-01-27T21:52:41.749Z,102109.44
2023-01-27T21:55:31.032Z,102118.00
2023-01-27T21:57:58.004Z,102109.53
2023-01-27T22:00:28.272Z,102114.78
2023-01-27T22:03:02.995Z,102103.63
2023-01-27T22:05:33.690Z,102106.22
2023-01-27T22:08:03.712Z,102111.38
2023-01-27T22:10:30.919Z,102104.63
2023-01-27T22:13:03.579Z,102120.94
2023-01-27T22:15:31.315Z,102111.63
2023-01-27T22:17:59.257Z,102109.91
2023-01-27T22:20:27.667Z,102114.25
2023-01-27T22:22:54.838Z,102111.72
2023-01-27T22:25:22.064Z,102112.63
2023-01-27T22:27:49.058Z,102110.97
2023-01-27T22:30:19.337Z,102109.25
2023-01-27T22:32:48.439Z,102114.34
2023-01-27T22:35:18.473Z,102109.25
2023-01-27T22:37:48.846Z,102105.81
2023-01-27T22:40:16.795Z,102110.09
2023-01-27T22:42:43.734Z,102114.38
2023-01-27T22:45:11.287Z,102107.53
2023-01-27T22:47:38.261Z,102104.13
2023-01-27T22:50:09.605Z,102108.41
2023-01-27T22:52:38.639Z,102106.69
2023-01-27T22:55:10.142Z,102106.69
2023-01-27T22:57:37.222Z,102098.16
2023-01-27T23:00:06.957Z,102104.13
2023-01-27T23:02:37.071Z,102099.91
2023-01-27T23:05:04.465Z,102102.47
2023-01-27T23:07:31.397Z,102093.06
2023-01-27T23:09:58.280Z,102089.66
2023-01-27T23:12:25.319Z,102087.91
2023-01-27T23:14:52.211Z,102087.03
2023-01-27T23:17:19.196Z,102085.38
2023-01-27T23:19:46.077Z,102094.78
2023-01-27T23:22:12.992Z,102084.50
2023-01-27T23:24:39.966Z,102076.81
2023-01-27T23:27:06.876Z,102076.00
2023-01-27T23:29:33.778Z,102074.31
2023-01-27T23:32:00.846Z,102082.03
2023-01-27T23:34:27.881Z,102072.63
2023-01-27T23:36:54.824Z,102070.06
2023-01-27T23:39:21.898Z,102078.66
2023-01-27T23:41:48.781Z,102074.38
2023-01-27T23:44:15.951Z,102070.97
2023-01-27T23:46:43.300Z,102077.00
2023-01-27T23:49:12.213Z,102070.13
2023-01-27T23:51:39.197Z,102070.94
2023-01-27T23:54:06.154Z,102070.13
2023-01-27T23:56:33.169Z,102080.38
2023-01-27T23:59:00.124Z,102079.47
